Weather at Chicago O'Hare International Airport

Public forecast

Using degrees Fahrenheit for public forecast. Weather courtesy of forecast.io.

Current aviation weather report (METAR) for Chicago O'Hare International Airport

Retrieved 2021/01/23 21:51 UTC (1 hour ago):

KORD 232151Z 16006KT 10SM OVC100 M01/M12 A3030 RMK AO2 SLP272 T10111122

Aviation forecast (TAF) for Chicago O'Hare International Airport

Retrieved 2021/01/23 18:36 UTC (4 hours ago):

TAF KORD 231735Z 2318/2424 19008KT P6SM SCT150 FM232200 15007KT P6SM OVC080 FM241000 15010KT 2SM -SN BKN017 OVC040 FM241500 18009KT 5SM -SN BKN020 OVC040 FM241900 23006KT P6SM BKN025 FM242300 35006KT P6SM BKN030